Time;durP1;ratioP1;P1;durP2;ratioP2;P2;SDS_P1;SDS_P2;PMS_P1;PMS_P2;Temp;Humidity;BMP_temperature;BMP_pressure;BME280_temperature;BME280_humidity;BME280_pressure;Samples;Min_cycle;Max_cycle;Signal;HPM_P1;HPM_P2
2021/11/24 00:01:20;;;;;;;0.00;0.00;;;;;;;7.26;68.68;102442.72;7361598;19;20014;-64
2021/11/24 00:03:46;;;;;;;0.10;0.10;;;;;;;7.25;68.74;102440.97;7361758;19;20010;-63
2021/11/24 00:06:11;;;;;;;0.10;0.10;;;;;;;7.20;68.76;102427.91;7362623;19;20003;-64
2021/11/24 00:08:36;;;;;;;0.05;0.05;;;;;;;7.25;68.72;102433.19;7363937;19;20027;-64
2021/11/24 00:11:02;;;;;;;0.00;0.00;;;;;;;7.26;68.70;102429.72;7361814;19;20034;-64
2021/11/24 00:13:28;;;;;;;0.00;0.00;;;;;;;7.26;68.97;102430.59;7359741;19;20023;-64
2021/11/24 00:15:53;;;;;;;0.00;0.00;;;;;;;7.09;68.32;102392.16;7362553;19;20098;-64
2021/11/24 00:18:19;;;;;;;0.00;0.00;;;;;;;7.27;68.45;102414.16;7361633;19;20431;-65
2021/11/24 00:20:44;;;;;;;0.03;0.03;;;;;;;7.29;69.08;102414.19;7362363;19;20078;-63
2021/11/24 00:23:09;;;;;;;0.10;0.10;;;;;;;7.28;68.60;102412.44;7359390;19;20024;-64
2021/11/24 00:25:35;;;;;;;0.10;0.10;;;;;;;7.29;68.43;102416.78;7361760;19;20018;-64
2021/11/24 00:28:00;;;;;;;0.00;0.00;;;;;;;7.16;68.50;102383.66;7362562;19;20006;-64
2021/11/24 00:30:26;;;;;;;0.10;0.10;;;;;;;7.27;68.27;102397.69;7358257;19;20018;-62
2021/11/24 00:32:53;;;;;;;0.00;0.00;;;;;;;7.06;68.49;102367.00;7359167;19;20018;-63
2021/11/24 00:35:18;;;;;;;0.00;0.00;;;;;;;7.22;68.47;102382.03;7355110;19;20546;-64
2021/11/24 00:37:44;;;;;;;0.00;0.00;;;;;;;7.19;68.34;102378.47;7361565;19;20094;-62
2021/11/24 00:40:09;;;;;;;0.00;0.00;;;;;;;7.15;68.31;102371.50;7358716;19;20030;-63
2021/11/24 00:42:35;;;;;;;0.00;0.00;;;;;;;7.02;68.27;102360.88;7356689;19;20078;-63
2021/11/24 00:45:01;;;;;;;0.10;0.10;;;;;;;7.09;68.43;102376.56;7361313;19;20007;-64
2021/11/24 00:47:26;;;;;;;0.08;0.08;;;;;;;7.01;68.18;102369.53;7357760;19;20494;-62
2021/11/24 00:49:52;;;;;;;0.00;0.00;;;;;;;7.02;68.63;102376.47;7361348;19;20023;-64
2021/11/24 00:52:17;;;;;;;0.10;0.10;;;;;;;7.00;68.71;102378.16;7357635;19;20014;-64
2021/11/24 00:54:43;;;;;;;0.00;0.00;;;;;;;6.99;68.84;102366.03;7362327;19;20010;-64
2021/11/24 00:57:08;;;;;;;0.10;0.10;;;;;;;6.89;68.49;102353.69;7363150;19;20049;-64
2021/11/24 00:59:33;;;;;;;0.00;0.00;;;;;;;6.96;68.75;102359.91;7363871;19;20010;-64
2021/11/24 01:01:59;;;;;;;0.08;0.08;;;;;;;6.94;68.47;102352.06;7363095;19;20478;-63
2021/11/24 01:04:25;;;;;;;0.10;0.10;;;;;;;6.93;68.52;102365.00;7364020;19;20025;-64
2021/11/24 01:06:50;;;;;;;0.00;0.00;;;;;;;6.92;68.32;102356.34;7363729;19;20076;-64
2021/11/24 01:09:16;;;;;;;0.08;0.08;;;;;;;6.85;69.14;102333.72;7362654;19;20048;-64
2021/11/24 01:11:42;;;;;;;0.00;0.00;;;;;;;6.89;68.96;102340.69;7359581;19;20009;-64
2021/11/24 01:14:08;;;;;;;0.00;0.00;;;;;;;6.88;68.93;102338.97;7364062;19;20336;-64
2021/11/24 01:16:34;;;;;;;0.10;0.10;;;;;;;6.88;68.59;102335.50;7364297;19;20017;-63
2021/11/24 01:19:00;;;;;;;0.10;0.10;;;;;;;6.88;68.31;102335.50;7359191;19;20010;-64
2021/11/24 01:21:25;;;;;;;0.10;0.10;;;;;;;6.86;68.41;102319.88;7362990;19;20011;-64
2021/11/24 01:23:52;;;;;;;0.00;0.00;;;;;;;6.86;67.89;102317.28;7361037;19;20010;-64
2021/11/24 01:26:18;;;;;;;0.10;0.10;;;;;;;6.85;68.54;102310.34;7358960;19;20018;-64
2021/11/24 01:28:43;;;;;;;0.10;0.10;;;;;;;6.84;68.79;102311.19;7363229;19;20018;-64
2021/11/24 01:31:08;;;;;;;0.00;0.00;;;;;;;6.75;68.26;102303.25;7361327;19;20768;-63
2021/11/24 01:33:34;;;;;;;0.00;0.00;;;;;;;6.80;68.43;102303.34;7361547;19;20017;-62
2021/11/24 01:36:00;;;;;;;0.10;0.10;;;;;;;6.50;68.23;102248.28;7361749;19;20011;-63
2021/11/24 01:38:26;;;;;;;0.10;0.10;;;;;;;6.64;68.65;102273.59;7358467;19;20015;-63
2021/11/24 01:40:53;;;;;;;0.10;0.10;;;;;;;6.72;68.79;102292.78;7361492;19;20368;-64
2021/11/24 01:43:18;;;;;;;0.00;0.00;;;;;;;6.70;68.28;102289.31;7359424;19;20142;-64
2021/11/24 01:45:44;;;;;;;0.10;0.10;;;;;;;6.65;68.32;102283.16;7359372;19;20014;-63
2021/11/24 01:48:09;;;;;;;0.10;0.10;;;;;;;6.63;68.44;102277.03;7361551;19;20021;-64
2021/11/24 01:50:35;;;;;;;0.00;0.00;;;;;;;6.60;68.39;102277.88;7360667;19;20014;-64
2021/11/24 01:53:01;;;;;;;0.10;0.10;;;;;;;6.57;68.38;102272.59;7360089;19;20017;-64
2021/11/24 01:55:27;;;;;;;0.10;0.10;;;;;;;6.49;68.52;102271.59;7357982;19;20017;-64
2021/11/24 01:57:52;;;;;;;0.00;0.00;;;;;;;6.49;68.00;102256.91;7359634;19;20018;-63
2021/11/24 02:00:23;;;;;;;0.00;0.00;;;;;;;6.46;68.31;102251.66;7359015;19;20015;-64
2021/11/24 02:02:49;;;;;;;0.00;0.00;;;;;;;6.40;68.45;102243.75;7358628;19;20007;-64
2021/11/24 02:05:15;;;;;;;0.00;0.00;;;;;;;6.32;68.12;102234.06;7362274;19;20014;-64
2021/11/24 02:07:41;;;;;;;0.00;0.00;;;;;;;6.33;68.07;102233.22;7358470;19;20025;-64
2021/11/24 02:10:07;;;;;;;0.05;0.05;;;;;;;6.31;68.25;102240.09;7361371;19;20010;-63
2021/11/24 02:12:33;;;;;;;0.10;0.10;;;;;;;6.27;68.23;102241.75;7359911;19;20015;-64
2021/11/24 02:14:58;;;;;;;0.10;0.10;;;;;;;6.22;68.59;102233.88;7359463;19;20011;-63
2021/11/24 02:17:24;;;;;;;0.03;0.03;;;;;;;6.15;68.55;102218.19;7353239;19;20003;-63
2021/11/24 02:19:50;;;;;;;0.10;0.10;;;;;;;6.18;68.40;102226.00;7359208;19;20010;-64
2021/11/24 02:22:16;;;;;;;0.10;0.10;;;;;;;6.16;69.23;102222.50;7360471;19;20018;-63
2021/11/24 02:24:41;;;;;;;0.10;0.10;;;;;;;6.14;69.08;102213.84;7361548;19;20018;-65
2021/11/24 02:27:10;;;;;;;0.10;0.10;;;;;;;6.13;69.13;102218.16;7360364;19;20022;-62
2021/11/24 02:29:36;;;;;;;0.00;0.00;;;;;;;6.12;68.90;102207.72;7360116;19;20027;-63
2021/11/24 02:32:03;;;;;;;0.00;0.00;;;;;;;6.10;69.13;102206.84;7360000;19;20378;-64
2021/11/24 02:34:29;;;;;;;0.00;0.00;;;;;;;5.97;68.81;102185.81;7359111;19;20030;-63
2021/11/24 02:36:56;;;;;;;0.03;0.03;;;;;;;6.07;69.27;102196.38;7360404;19;20026;-63
2021/11/24 02:39:22;;;;;;;0.00;0.00;;;;;;;6.05;68.86;102195.50;7360359;19;20050;-64
2021/11/24 02:41:48;;;;;;;0.03;0.03;;;;;;;6.02;68.93;102192.84;7359085;19;20018;-63
2021/11/24 02:44:26;;;;;;;0.00;0.00;;;;;;;6.02;69.00;102190.25;7361479;19;20010;-64
2021/11/24 02:46:53;;;;;;;0.00;0.00;;;;;;;5.94;69.30;102179.72;7364547;19;20010;-63
2021/11/24 02:49:19;;;;;;;0.00;0.00;;;;;;;5.96;69.15;102178.91;7359538;19;20038;-63
2021/11/24 02:51:46;;;;;;;0.10;0.10;;;;;;;5.93;69.24;102181.44;7360698;19;20119;-64
2021/11/24 02:54:11;;;;;;;0.10;0.10;;;;;;;5.92;69.49;102171.91;7359845;19;20082;-63
2021/11/24 02:56:39;;;;;;;0.00;0.00;;;;;;;5.86;69.50;102151.00;7361568;19;20078;-63
2021/11/24 02:59:06;;;;;;;0.10;0.10;;;;;;;5.86;69.54;102156.19;7353539;19;20036;-63
2021/11/24 03:01:32;;;;;;;0.10;0.10;;;;;;;5.84;69.83;102157.91;7365231;19;20777;-64
2021/11/24 03:03:57;;;;;;;0.10;0.10;;;;;;;5.79;69.29;102156.06;7356100;19;20013;-64
2021/11/24 03:06:22;;;;;;;0.10;0.10;;;;;;;5.81;69.75;102150.03;7364179;19;20038;-64
2021/11/24 03:08:48;;;;;;;0.00;0.00;;;;;;;5.75;69.93;102142.16;7370007;19;20657;-63
2021/11/24 03:11:13;;;;;;;0.10;0.10;;;;;;;5.76;69.16;102149.06;7368768;19;20014;-64
2021/11/24 03:13:39;;;;;;;0.10;0.10;;;;;;;5.76;69.87;102151.66;7368621;19;20032;-63
2021/11/24 03:16:04;;;;;;;0.10;0.10;;;;;;;5.76;69.09;102149.06;7367531;19;20486;-63
2021/11/24 03:18:30;;;;;;;0.00;0.00;;;;;;;5.74;69.81;102130.03;7367387;19;20018;-64
2021/11/24 03:20:55;;;;;;;0.10;0.10;;;;;;;5.73;70.11;102131.75;7368434;19;20010;-64
2021/11/24 03:23:21;;;;;;;0.00;0.00;;;;;;;5.68;69.67;102135.09;7369336;19;20035;-65
2021/11/24 03:25:46;;;;;;;0.00;0.00;;;;;;;5.49;70.14;102096.69;7365990;19;20006;-64
2021/11/24 03:28:12;;;;;;;0.00;0.00;;;;;;;5.72;69.96;102136.91;7369575;19;20002;-64
2021/11/24 03:30:37;;;;;;;0.10;0.10;;;;;;;5.71;69.66;102135.16;7366599;19;20086;-64
2021/11/24 03:33:04;;;;;;;0.10;0.10;;;;;;;5.74;70.52;102135.22;7370475;19;20014;-64
2021/11/24 03:35:31;;;;;;;0.10;0.10;;;;;;;5.69;70.70;102117.00;7365291;19;20016;-64
2021/11/24 03:37:57;;;;;;;0.10;0.10;;;;;;;5.77;70.13;102118.84;7367246;19;20050;-64
2021/11/24 03:40:26;;;;;;;0.10;0.10;;;;;;;5.83;70.06;102109.50;7367619;19;21391;-64
2021/11/24 03:42:52;;;;;;;0.10;0.10;;;;;;;5.86;70.36;102112.13;7368799;19;20031;-64
2021/11/24 03:45:24;;;;;;;0.10;0.10;;;;;;;5.88;70.33;102101.78;7367638;19;20014;-64
2021/11/24 03:47:50;;;;;;;0.10;0.10;;;;;;;5.84;69.55;102079.25;7369202;19;20005;-64
2021/11/24 03:50:15;;;;;;;0.10;0.10;;;;;;;5.91;70.20;102079.41;7365100;19;20002;-62
2021/11/24 03:52:41;;;;;;;0.00;0.00;;;;;;;5.94;70.14;102071.72;7368738;19;20032;-64
2021/11/24 03:55:09;;;;;;;0.10;0.10;;;;;;;6.08;70.58;102089.22;7366681;19;20007;-64
2021/11/24 03:57:34;;;;;;;0.00;0.00;;;;;;;6.11;70.03;102084.09;7368451;19;20870;-63
2021/11/24 04:00:00;;;;;;;0.05;0.05;;;;;;;6.13;70.52;102088.47;7366799;19;20045;-64
2021/11/24 04:02:26;;;;;;;0.10;0.10;;;;;;;6.08;69.29;102063.28;7367863;19;20079;-64
2021/11/24 04:04:52;;;;;;;0.10;0.10;;;;;;;6.21;70.08;102067.84;7365416;19;20017;-64
2021/11/24 04:07:17;;;;;;;0.00;0.00;;;;;;;6.24;70.36;102061.00;7361605;19;20503;-64
2021/11/24 04:09:43;;;;;;;0.00;0.00;;;;;;;6.29;70.03;102053.28;7365159;19;20014;-64
2021/11/24 04:12:09;;;;;;;0.10;0.10;;;;;;;6.31;69.87;102038.63;7368903;19;20033;-63
2021/11/24 04:14:34;;;;;;;0.00;0.00;;;;;;;6.33;69.91;102031.72;7360742;19;20019;-63
2021/11/24 04:16:59;;;;;;;0.00;0.00;;;;;;;6.31;69.88;102028.25;7370668;19;20006;-63
2021/11/24 04:19:25;;;;;;;0.10;0.10;;;;;;;6.38;69.96;102035.25;7364242;19;20788;-64
2021/11/24 04:21:51;;;;;;;0.10;0.10;;;;;;;6.27;69.94;102016.06;7362449;19;20013;-64
2021/11/24 04:24:18;;;;;;;0.00;0.00;;;;;;;6.32;69.38;102017.00;7368715;19;20020;-64
2021/11/24 04:26:43;;;;;;;0.05;0.05;;;;;;;6.00;69.80;101958.56;7370593;19;20046;-63
2021/11/24 04:29:09;;;;;;;0.10;0.10;;;;;;;6.31;69.50;102014.41;7361784;19;20006;-63
2021/11/24 04:31:34;;;;;;;0.05;0.05;;;;;;;6.28;69.73;102004.84;7366593;19;20023;-61
2021/11/24 04:33:59;;;;;;;0.00;0.00;;;;;;;6.26;69.53;102001.34;7371105;19;20050;-64
2021/11/24 04:36:25;;;;;;;0.00;0.00;;;;;;;6.16;69.42;101981.31;7364850;19;20023;-63
2021/11/24 04:38:50;;;;;;;0.10;0.10;;;;;;;6.21;69.65;101992.63;7368310;19;20027;-65
2021/11/24 04:41:15;;;;;;;0.10;0.10;;;;;;;6.21;69.75;101993.50;7367367;19;20037;-63
2021/11/24 04:43:44;;;;;;;0.00;0.00;;;;;;;6.20;69.80;101990.88;7367931;19;20017;-64
2021/11/24 04:46:10;;;;;;;0.00;0.00;;;;;;;6.15;69.83;101982.16;7366351;19;20006;-64
2021/11/24 04:48:37;;;;;;;0.00;0.00;;;;;;;6.09;69.73;101966.50;7365361;19;20013;-64
2021/11/24 04:51:02;;;;;;;0.00;0.00;;;;;;;6.21;70.12;101967.56;7368343;19;20010;-65
2021/11/24 04:53:28;;;;;;;0.10;0.10;;;;;;;6.21;69.82;101957.19;7366757;19;20017;-64
2021/11/24 04:55:53;;;;;;;0.00;0.00;;;;;;;6.22;69.33;101960.66;7364851;19;20014;-63
2021/11/24 04:58:19;;;;;;;0.10;0.10;;;;;;;6.21;69.58;101961.50;7368717;19;20002;-65
2021/11/24 05:00:44;;;;;;;0.00;0.00;;;;;;;6.18;69.26;101962.34;7364986;19;20014;-65
2021/11/24 05:03:09;;;;;;;0.10;0.10;;;;;;;6.17;69.54;101957.09;7369355;19;20081;-63
2021/11/24 05:05:35;;;;;;;0.00;0.00;;;;;;;6.11;69.65;101964.81;7366871;19;20060;-62
2021/11/24 05:08:02;;;;;;;0.10;0.10;;;;;;;6.10;69.21;101961.34;7368210;19;20357;-61
2021/11/24 05:10:28;;;;;;;0.00;0.00;;;;;;;6.07;69.51;101958.69;7369572;19;20176;-64
2021/11/24 05:12:53;;;;;;;0.10;0.10;;;;;;;6.03;69.58;101948.25;7366658;19;20018;-64
2021/11/24 05:15:22;;;;;;;0.08;0.08;;;;;;;5.99;69.62;101944.75;7369562;19;20034;-64
2021/11/24 05:17:51;;;;;;;0.10;0.10;;;;;;;5.96;69.34;101942.97;7366455;19;20010;-64
2021/11/24 05:20:20;;;;;;;0.00;0.00;;;;;;;5.92;69.58;101933.38;7364383;19;20021;-63
2021/11/24 05:22:48;;;;;;;0.00;0.00;;;;;;;5.91;68.88;101942.00;7366160;19;20022;-63
2021/11/24 05:25:14;;;;;;;0.00;0.00;;;;;;;5.89;69.43;101938.50;7365307;19;20014;-64
2021/11/24 05:27:39;;;;;;;0.00;0.00;;;;;;;5.86;69.22;101925.47;7367316;19;20010;-65
2021/11/24 05:30:05;;;;;;;0.10;0.10;;;;;;;5.84;69.69;101923.72;7362332;19;20011;-64
2021/11/24 05:32:31;;;;;;;0.10;0.10;;;;;;;5.82;69.76;101915.91;7368919;19;20010;-63
2021/11/24 05:34:56;;;;;;;0.10;0.10;;;;;;;5.67;69.95;101889.72;7366842;19;20043;-64
2021/11/24 05:37:21;;;;;;;0.10;0.10;;;;;;;5.82;69.99;101915.03;7364701;19;20014;-64
2021/11/24 05:39:47;;;;;;;0.00;0.00;;;;;;;5.79;69.84;101915.88;7367775;19;20018;-64
2021/11/24 05:42:12;;;;;;;0.10;0.10;;;;;;;5.81;69.66;101902.91;7365148;19;20477;-65
2021/11/24 05:44:38;;;;;;;0.10;0.10;;;;;;;5.79;69.84;101900.31;7366345;19;20025;-62
2021/11/24 05:47:49;;;;;;;0.00;0.00;;;;;;;5.81;69.93;101889.97;7366116;19;20003;-63
2021/11/24 05:49:53;;;;;;;0.00;0.00;;;;;;;5.83;70.20;101880.47;7367496;19;20006;-64
2021/11/24 05:52:18;;;;;;;0.00;0.00;;;;;;;5.85;70.13;101874.50;7366975;19;22349;-64
2021/11/24 05:54:44;;;;;;;0.10;0.10;;;;;;;5.82;70.38;101858.88;7367784;19;20010;-65
2021/11/24 05:57:09;;;;;;;0.00;0.00;;;;;;;5.91;70.17;101872.00;7367322;19;20018;-63
2021/11/24 05:59:35;;;;;;;0.00;0.00;;;;;;;5.93;70.54;101856.47;7365103;19;20129;-64
2021/11/24 06:02:00;;;;;;;0.10;0.10;;;;;;;5.95;69.91;101855.66;7363340;19;20569;-65
2021/11/24 06:04:25;;;;;;;0.00;0.00;;;;;;;5.98;69.97;101854.81;7365129;19;20025;-64
2021/11/24 06:06:51;;;;;;;0.10;0.10;;;;;;;5.98;69.86;101850.53;7367410;19;20018;-63
2021/11/24 06:09:16;;;;;;;0.10;0.10;;;;;;;6.00;70.02;101847.09;7365783;19;20017;-64
2021/11/24 06:11:43;;;;;;;0.10;0.10;;;;;;;6.01;69.68;101843.63;7364443;19;21065;-64
2021/11/24 06:14:08;;;;;;;0.00;0.00;;;;;;;6.02;70.26;101846.25;7364243;19;20097;-63
2021/11/24 06:16:33;;;;;;;0.00;0.00;;;;;;;6.06;70.26;101841.97;7364201;19;20094;-64
2021/11/24 06:18:59;;;;;;;0.10;0.10;;;;;;;6.09;70.70;101836.84;7366443;19;20086;-63
2021/11/24 06:21:24;;;;;;;0.10;0.10;;;;;;;6.13;70.60;101838.59;7364649;19;20035;-64
2021/11/24 06:23:50;;;;;;;0.00;0.00;;;;;;;6.16;70.30;101833.47;7362173;19;20022;-63
2021/11/24 06:26:16;;;;;;;0.10;0.10;;;;;;;6.17;70.37;101830.03;7367306;19;20014;-64
2021/11/24 06:28:43;;;;;;;0.00;0.00;;;;;;;6.06;70.12;101810.88;7364009;19;20028;-64
2021/11/24 06:31:09;;;;;;;0.10;0.10;;;;;;;6.06;70.05;101806.53;7364392;19;20016;-64
2021/11/24 06:33:35;;;;;;;0.00;0.00;;;;;;;6.17;69.82;101825.72;7364676;19;20021;-64
2021/11/24 06:36:00;;;;;;;0.00;0.00;;;;;;;6.17;70.35;101822.25;7363949;19;20002;-64
2021/11/24 06:38:26;;;;;;;0.00;0.00;;;;;;;5.97;70.43;101786.53;7362402;19;20038;-65
2021/11/24 06:40:51;;;;;;;0.00;0.00;;;;;;;6.16;70.02;101817.91;7363973;19;20025;-64
2021/11/24 06:43:17;;;;;;;0.08;0.08;;;;;;;6.09;70.26;101790.16;7369138;19;20529;-64
2021/11/24 06:45:44;;;;;;;0.00;0.00;;;;;;;6.13;70.13;101804.91;7369853;19;19999;-64
2021/11/24 06:48:09;;;;;;;0.10;0.10;;;;;;;5.81;70.48;101747.41;7369788;19;20014;-65
2021/11/24 06:50:35;;;;;;;0.03;0.03;;;;;;;6.10;70.25;101797.97;7368938;19;20037;-64
2021/11/24 06:53:02;;;;;;;0.00;0.00;;;;;;;6.11;70.42;101793.66;7371581;19;20006;-63
2021/11/24 06:55:28;;;;;;;0.00;0.00;;;;;;;6.11;70.67;101778.94;7370998;19;20042;-65
2021/11/24 06:57:53;;;;;;;0.00;0.00;;;;;;;6.15;70.70;101769.50;7371422;19;20394;-65
2021/11/24 07:00:19;;;;;;;0.10;0.10;;;;;;;6.18;70.65;101774.69;7370196;19;20011;-64
2021/11/24 07:02:44;;;;;;;0.10;0.10;;;;;;;6.21;70.29;101775.63;7367827;19;20009;-63
2021/11/24 07:05:11;;;;;;;0.00;0.00;;;;;;;6.26;70.56;101778.28;7368626;19;20355;-64
2021/11/24 07:07:36;;;;;;;0.00;0.00;;;;;;;6.29;70.58;101773.13;7366419;19;20023;-65
2021/11/24 07:10:03;;;;;;;0.00;0.00;;;;;;;6.33;70.69;101764.50;7368409;19;20652;-64
2021/11/24 07:12:29;;;;;;;0.10;0.10;;;;;;;6.27;70.54;101742.84;7367828;19;20006;-64
2021/11/24 07:14:56;;;;;;;0.10;0.10;;;;;;;6.41;70.78;101752.50;7367972;19;20007;-63
2021/11/24 07:17:22;;;;;;;0.10;0.10;;;;;;;6.48;70.28;101749.13;7371203;19;20010;-64
2021/11/24 07:19:47;;;;;;;0.10;0.10;;;;;;;6.53;71.08;101751.78;7366290;19;20023;-63
2021/11/24 07:22:13;;;;;;;0.08;0.08;;;;;;;6.59;70.75;101744.06;7371771;19;20025;-64
2021/11/24 07:24:38;;;;;;;0.10;0.10;;;;;;;6.64;71.10;101739.81;7366124;19;20015;-63
2021/11/24 07:27:04;;;;;;;0.10;0.10;;;;;;;6.68;70.85;101731.16;7370077;19;20516;-62
2021/11/24 07:29:30;;;;;;;0.00;0.00;;;;;;;6.73;71.12;101721.69;7363226;19;21954;-63
2021/11/24 07:31:55;;;;;;;0.10;0.10;;;;;;;6.78;70.20;101721.75;7369008;19;20041;-63
2021/11/24 07:34:20;;;;;;;0.05;0.05;;;;;;;6.81;70.49;101719.19;7366899;19;20131;-64
2021/11/24 07:36:46;;;;;;;0.00;0.00;;;;;;;6.85;70.46;101718.38;7368864;19;20034;-64
2021/11/24 07:39:11;;;;;;;0.00;0.00;;;;;;;6.90;70.49;101726.19;7361925;19;20010;-62
2021/11/24 07:41:37;;;;;;;0.10;0.10;;;;;;;6.92;70.64;101714.94;7367097;19;20070;-64
2021/11/24 07:44:03;;;;;;;0.00;0.00;;;;;;;6.97;70.47;101718.47;7368094;19;20024;-64
2021/11/24 07:46:28;;;;;;;0.00;0.00;;;;;;;6.91;70.52;101697.63;7364067;19;20006;-65
2021/11/24 07:48:54;;;;;;;0.10;0.10;;;;;;;6.97;70.72;101691.63;7360483;19;20021;-64
2021/11/24 07:51:19;;;;;;;0.10;0.10;;;;;;;7.08;70.50;101694.31;7365839;19;20018;-64
2021/11/24 07:53:46;;;;;;;0.10;0.10;;;;;;;7.09;70.38;101702.09;7369822;19;20015;-65
2021/11/24 07:56:11;;;;;;;0.10;0.10;;;;;;;7.09;70.79;101689.09;7362641;19;20028;-65
2021/11/24 07:58:40;;;;;;;0.10;0.10;;;;;;;7.11;70.60;101694.34;7367242;19;20014;-64
2021/11/24 08:01:06;;;;;;;0.10;0.10;;;;;;;7.15;70.51;101691.78;7360660;19;20006;-64
2021/11/24 08:03:31;;;;;;;0.00;0.00;;;;;;;7.18;70.45;101685.72;7365833;19;20017;-63
2021/11/24 08:05:57;;;;;;;0.00;0.00;;;;;;;7.20;70.71;101681.41;7362774;19;20018;-63
2021/11/24 08:08:22;;;;;;;0.00;0.00;;;;;;;7.23;70.80;101684.03;7361668;19;20728;-64
2021/11/24 08:10:47;;;;;;;0.00;0.00;;;;;;;7.26;70.85;101681.47;7359595;19;20098;-64
2021/11/24 08:13:13;;;;;;;0.00;0.00;;;;;;;7.28;70.90;101677.13;7366557;19;20006;-64
2021/11/24 08:15:38;;;;;;;0.00;0.00;;;;;;;7.30;70.80;101672.81;7364677;19;20030;-64
2021/11/24 08:18:04;;;;;;;0.00;0.00;;;;;;;7.32;70.79;101673.69;7356611;19;20505;-64
2021/11/24 08:20:29;;;;;;;0.10;0.10;;;;;;;7.35;70.20;101673.72;7362423;19;20607;-64
2021/11/24 08:22:54;;;;;;;0.10;0.10;;;;;;;7.36;71.03;101670.25;7366103;19;20026;-64
2021/11/24 08:25:20;;;;;;;0.00;0.00;;;;;;;7.38;70.72;101660.72;7220650;19;2817954;-64
2021/11/24 08:27:45;;;;;;;0.00;0.00;;;;;;;7.41;70.90;101660.75;7369336;19;20498;-65
2021/11/24 08:30:11;;;;;;;0.00;0.00;;;;;;;7.18;71.17;101624.25;7366358;19;20034;-65
2021/11/24 08:32:37;;;;;;;0.00;0.00;;;;;;;7.44;71.33;101657.28;7362978;19;20007;-64
2021/11/24 08:35:06;;;;;;;0.00;0.00;;;;;;;7.47;71.34;101649.53;7358338;19;20030;-65
2021/11/24 08:37:31;;;;;;;0.10;0.10;;;;;;;7.50;70.52;101642.63;7356532;19;20023;-64
2021/11/24 08:39:57;;;;;;;0.03;0.03;;;;;;;7.51;71.04;101635.69;7362427;19;20018;-63
2021/11/24 08:42:25;;;;;;;0.10;0.10;;;;;;;7.52;71.22;101646.09;7357040;19;20017;-63
2021/11/24 08:44:51;;;;;;;0.10;0.10;;;;;;;7.53;71.05;101637.44;7360087;19;20010;-64
2021/11/24 08:47:16;;;;;;;0.00;0.00;;;;;;;7.58;70.97;101639.19;7367110;19;20019;-65
2021/11/24 08:49:42;;;;;;;0.10;0.10;;;;;;;7.59;71.24;101633.97;7361815;19;20014;-63
2021/11/24 08:52:07;;;;;;;0.00;0.00;;;;;;;7.62;71.19;101627.94;7366849;19;20069;-64
2021/11/24 08:54:33;;;;;;;0.00;0.00;;;;;;;7.64;71.40;101626.19;7368958;19;20017;-64
2021/11/24 08:56:59;;;;;;;0.05;0.05;;;;;;;7.67;71.20;101623.63;7365993;19;20006;-64
2021/11/24 08:59:24;;;;;;;0.00;0.00;;;;;;;7.68;71.23;101614.97;7361115;19;20010;-64
2021/11/24 09:01:50;;;;;;;0.10;0.10;;;;;;;7.73;71.02;101618.44;7362113;19;20716;-61
2021/11/24 09:04:15;;;;;;;0.00;0.00;;;;;;;7.74;71.26;101610.66;7359250;19;20014;-61
2021/11/24 09:06:41;;;;;;;0.10;0.10;;;;;;;7.78;71.39;101611.53;7347012;19;20066;-62
2021/11/24 09:09:06;;;;;;;0.10;0.10;;;;;;;7.70;71.21;101592.44;7362983;19;20018;-62
2021/11/24 09:11:33;;;;;;;0.00;0.00;;;;;;;7.84;70.77;101611.53;7364097;19;21315;-61
2021/11/24 09:13:58;;;;;;;0.00;0.00;;;;;;;7.79;70.44;101598.53;7357371;19;20014;-62
2021/11/24 09:16:23;;;;;;;0.00;0.00;;;;;;;7.89;71.49;101615.03;7364409;19;20608;-63
2021/11/24 09:18:49;;;;;;;0.10;0.10;;;;;;;7.87;70.81;101606.38;7357795;19;20011;-62
2021/11/24 09:21:14;;;;;;;0.00;0.00;;;;;;;7.90;71.41;101616.75;7364998;19;20415;-62
2021/11/24 09:23:43;;;;;;;0.00;0.00;;;;;;;7.90;70.52;101621.97;7364090;19;20824;-63
2021/11/24 09:26:16;;;;;;;0.00;0.00;;;;;;;7.88;71.33;101628.91;7367869;19;20017;-63
2021/11/24 09:28:43;;;;;;;0.00;0.00;;;;;;;7.85;71.83;101618.47;7362374;19;20003;-63
2021/11/24 09:31:08;;;;;;;0.10;0.10;;;;;;;7.82;72.00;101617.63;7366687;19;20035;-63
2021/11/24 09:33:34;;;;;;;0.10;0.10;;;;;;;7.77;72.28;101615.00;7364059;19;20355;-65
2021/11/24 09:36:01;;;;;;;0.00;0.00;;;;;;;7.65;71.71;101594.13;7365032;19;20862;-64
2021/11/24 09:38:27;;;;;;;0.00;0.00;;;;;;;7.73;71.97;101603.72;7365034;19;20052;-64
2021/11/24 09:40:55;;;;;;;0.10;0.10;;;;;;;7.78;72.60;101607.19;7364637;19;20743;-63
2021/11/24 09:43:21;;;;;;;0.10;0.10;;;;;;;7.73;72.26;101600.25;7367114;19;20013;-64
2021/11/24 09:45:47;;;;;;;0.00;0.00;;;;;;;7.80;72.70;101610.66;7359848;19;20020;-63
2021/11/24 09:48:18;;;;;;;0.10;0.10;;;;;;;7.83;72.80;101607.22;7354047;19;20078;-64
2021/11/24 09:50:49;;;;;;;0.03;0.03;;;;;;;7.85;72.49;101600.28;7362910;19;20577;-64
2021/11/24 09:53:16;;;;;;;0.03;0.03;;;;;;;7.76;72.44;101582.94;7351653;19;20023;-64
2021/11/24 09:55:42;;;;;;;0.00;0.00;;;;;;;7.90;73.13;101590.75;7354937;19;20499;-61
2021/11/24 09:58:15;;;;;;;0.10;0.10;;;;;;;7.94;72.65;101587.31;7357804;19;20078;-61
2021/11/24 10:00:41;;;;;;;0.10;0.10;;;;;;;7.97;72.90;101597.72;7363357;19;20010;-65
2021/11/24 10:03:06;;;;;;;0.10;0.10;;;;;;;8.01;73.12;101583.88;7355792;19;20009;-64
2021/11/24 10:05:33;;;;;;;0.00;0.00;;;;;;;8.05;73.58;101587.31;7362656;19;20017;-64
2021/11/24 10:07:59;;;;;;;0.10;0.10;;;;;;;8.09;73.10;101581.25;7365170;19;20105;-63
2021/11/24 10:10:26;;;;;;;0.00;0.00;;;;;;;8.15;73.48;101580.41;7364571;19;20093;-64
2021/11/24 10:12:51;;;;;;;0.00;0.00;;;;;;;8.18;73.75;101577.81;7364727;19;20017;-63
2021/11/24 10:15:43;;;;;;;0.00;0.00;;;;;;;8.30;73.16;101581.28;7352747;19;20789;-63
2021/11/24 10:18:13;;;;;;;0.00;0.00;;;;;;;8.38;73.93;101576.13;7256835;19;2004556;-62
2021/11/24 10:20:50;;;;;;;0.05;0.05;;;;;;;8.47;72.77;101578.75;7357169;19;20473;-62
2021/11/24 10:23:43;;;;;;;0.03;0.03;;;;;;;8.55;72.60;101586.53;7362487;19;20114;-63
2021/11/24 10:26:21;;;;;;;0.00;0.00;;;;;;;8.53;73.44;101568.31;7261978;19;2004727;-63
2021/11/24 10:28:58;;;;;;;0.10;0.10;;;;;;;8.65;73.13;101577.00;7359649;19;20011;-65
2021/11/24 10:31:25;;;;;;;0.00;0.00;;;;;;;8.67;73.18;101577.84;7357412;19;20006;-63
2021/11/24 10:33:51;;;;;;;0.10;0.10;;;;;;;8.70;73.38;101581.31;7356995;19;20407;-62
2021/11/24 10:36:17;;;;;;;0.10;0.10;;;;;;;8.61;73.37;101557.03;7360148;19;20010;-64
2021/11/24 10:38:46;;;;;;;0.10;0.10;;;;;;;8.84;73.52;101579.56;7363292;19;20032;-63
2021/11/24 10:41:24;;;;;;;0.00;0.00;;;;;;;8.93;73.25;101580.44;7359513;19;20013;-62
2021/11/24 10:43:49;;;;;;;0.00;0.00;;;;;;;9.02;73.44;101578.69;7361868;19;20032;-64
2021/11/24 10:46:17;;;;;;;0.00;0.00;;;;;;;9.08;73.61;101578.66;7361497;19;20015;-63
2021/11/24 10:48:42;;;;;;;;;;;;;;;9.21;71.85;101574.25;7358430;19;20010;-62
2021/11/24 10:51:37;;;;;;;0.00;0.00;;;;;;;9.30;72.09;101571.63;7361262;19;19918;-62
2021/11/24 10:54:17;;;;;;;0.10;0.10;;;;;;;9.36;72.67;101563.78;7261767;19;2004467;-62
2021/11/24 10:57:03;;;;;;;0.10;0.10;;;;;;;9.42;72.26;101562.91;7358326;19;20006;-63
2021/11/24 10:59:40;;;;;;;0.10;0.10;;;;;;;9.37;72.60;101559.44;7360039;19;20006;-63
2021/11/24 11:02:24;;;;;;;0.10;0.10;;;;;;;9.53;72.09;101565.44;7355111;19;20491;-63
2021/11/24 11:04:58;;;;;;;0.00;0.00;;;;;;;9.55;72.24;101558.50;7361937;19;20006;-64
2021/11/24 11:07:25;;;;;;;0.10;0.10;;;;;;;9.53;72.72;101550.69;7363849;19;20007;-63
2021/11/24 11:10:18;;;;;;;0.08;0.08;;;;;;;9.62;71.68;101549.75;7359147;19;23144;-63
2021/11/24 11:12:50;;;;;;;0.00;0.00;;;;;;;9.63;71.81;101548.91;7257870;19;2004126;-63
2021/11/24 11:15:23;;;;;;;0.08;0.08;;;;;;;9.66;71.98;101550.63;7356398;19;20007;-62
2021/11/24 11:17:59;;;;;;;0.00;0.00;;;;;;;9.68;72.30;101554.97;7359835;19;20073;-63
2021/11/24 11:20:37;;;;;;;0.00;0.00;;;;;;;9.69;72.38;101543.66;7358619;19;20090;-63
2021/11/24 11:23:02;;;;;;;0.00;0.00;;;;;;;9.70;72.32;101544.53;7361397;19;20370;-63
2021/11/24 11:25:28;;;;;;;0.10;0.10;;;;;;;9.73;72.36;101534.94;7359492;19;20070;-63
2021/11/24 11:27:54;;;;;;;0.08;0.08;;;;;;;9.66;72.32;101529.75;7367091;19;20010;-63
2021/11/24 11:30:20;;;;;;;0.00;0.00;;;;;;;9.79;71.88;101536.66;7367887;19;20595;-63
2021/11/24 11:32:47;;;;;;;0.00;0.00;;;;;;;9.79;72.13;101532.31;7365639;19;20010;-63